Time;durP1;ratioP1;P1;durP2;ratioP2;P2;SDS_P1;SDS_P2;PMS_P1;PMS_P2;Temp;Humidity;BMP_temperature;BMP_pressure;BME280_temperature;BME280_humidity;BME280_pressure;Samples;Min_cycle;Max_cycle;Signal;HPM_P1;HPM_P2
2022/09/12 00:01:11;;;;;;;2.67;2.03;;;16.20;99.90;;;;;;5119015;27;20209;-71
2022/09/12 00:04:00;;;;;;;2.17;2.07;;;16.20;99.90;;;;;;5112564;27;20798;-71
2022/09/12 00:06:28;;;;;;;2.00;1.90;;;16.20;99.90;;;;;;5110931;28;20240;-71
2022/09/12 00:09:00;;;;;;;2.03;1.93;;;16.10;99.90;;;;;;5129549;27;20204;-71
2022/09/12 00:11:28;;;;;;;2.13;2.03;;;16.10;99.90;;;;;;5131705;27;20205;-70
2022/09/12 00:13:57;;;;;;;4.70;2.03;;;16.10;99.90;;;;;;5131371;27;20205;-71
2022/09/12 00:16:28;;;;;;;2.50;2.40;;;16.10;99.90;;;;;;5111385;27;20671;-70
2022/09/12 00:18:55;;;;;;;2.17;2.07;;;16.00;99.90;;;;;;5124569;27;20200;-70
2022/09/12 00:21:22;;;;;;;2.30;2.20;;;16.00;99.90;;;;;;5110973;28;20229;-70
2022/09/12 00:23:50;;;;;;;2.40;2.17;;;16.00;99.90;;;;;;5122648;27;20239;-70
2022/09/12 00:26:19;;;;;;;2.07;1.97;;;15.90;99.90;;;;;;5112049;27;20210;-70
2022/09/12 00:28:46;;;;;;;2.20;2.07;;;16.00;99.90;;;;;;5122175;27;20551;-70
2022/09/12 00:31:15;;;;;;;3.23;2.50;;;15.90;99.90;;;;;;5131158;27;20225;-70
2022/09/12 00:34:10;;;;;;;2.20;2.10;;;15.90;99.90;;;;;;5112997;27;20656;-71
2022/09/12 00:36:38;;;;;;;2.40;2.20;;;15.80;99.90;;;;;;5110886;28;20197;-71
2022/09/12 00:39:06;;;;;;;1.90;1.80;;;15.80;99.90;;;;;;5111928;27;20213;-71
2022/09/12 00:41:35;;;;;;;2.17;2.00;;;15.80;99.90;;;;;;5110587;27;20234;-71
2022/09/12 00:44:23;;;;;;;2.37;2.27;;;15.80;99.90;;;;;;5112877;27;20206;-71
2022/09/12 00:50:16;;;;;;;3.53;2.17;;;15.70;99.90;;;;;;5110338;28;20233;-72
2022/09/12 00:56:04;;;;;;;2.20;2.10;;;15.70;99.90;;;;;;5110405;28;20193;-70
2022/09/12 00:59:12;;;;;;;2.37;2.20;;;15.60;99.90;;;;;;5109865;28;20672;-70
2022/09/12 01:01:42;;;;;;;2.57;2.37;;;15.60;99.90;;;;;;5127716;27;20198;-70
2022/09/12 01:04:18;;;;;;;2.33;2.17;;;15.60;99.90;;;;;;5130284;27;20655;-70
2022/09/12 01:10:06;;;;;;;2.50;2.30;;;15.60;99.90;;;;;;5090778;27;20241;-70
2022/09/12 01:15:55;;;;;;;2.20;2.10;;;15.60;99.90;;;;;;5125456;27;20188;-70
2022/09/12 01:19:08;;;;;;;2.50;2.30;;;15.50;99.90;;;;;;5130798;27;20206;-70
2022/09/12 01:21:43;;;;;;;2.43;2.33;;;15.50;99.90;;;;;;5130380;27;20209;-70
2022/09/12 01:24:42;;;;;;;4.13;2.70;;;15.50;99.90;;;;;;5123432;27;20201;-70
2022/09/12 01:30:45;;;;;;;2.17;2.07;;;15.40;99.90;;;;;;5121977;27;20750;-70
2022/09/12 01:39:51;;;;;;;2.40;2.30;;;15.30;99.90;;;;;;5065932;28;20238;-70
2022/09/12 01:56:02;;;;;;;2.50;2.40;;;15.20;99.90;;;;;;5082218;28;20273;-70
2022/09/12 01:58:35;;;;;;;2.30;2.20;;;15.20;99.90;;;;;;5065841;28;20191;-70
2022/09/12 02:01:07;;;;;;;2.50;2.40;;;15.10;99.90;;;;;;5079989;28;20584;-69
2022/09/12 02:03:40;;;;;;;2.53;2.33;;;15.10;99.90;;;;;;5086004;28;20657;-70
2022/09/12 02:06:12;;;;;;;2.63;2.20;;;15.10;99.90;;;;;;5085857;28;20207;-70
2022/09/12 02:08:44;;;;;;;2.53;2.33;;;15.10;99.90;;;;;;5085977;28;20202;-71
2022/09/12 02:11:12;;;;;;;2.23;2.13;;;15.10;99.90;;;;;;5119157;27;20230;-72
2022/09/12 02:13:42;;;;;;;2.27;2.07;;;15.10;99.90;;;;;;5129208;27;20201;-72
2022/09/12 02:16:11;;;;;;;2.50;2.30;;;15.10;99.90;;;;;;5129213;27;20190;-71
2022/09/12 02:18:40;;;;;;;2.30;2.10;;;15.10;99.90;;;;;;5127272;27;20209;-70
2022/09/12 02:21:08;;;;;;;2.50;2.30;;;15.10;99.90;;;;;;5117640;27;20573;-69
2022/09/12 02:23:39;;;;;;;2.20;2.10;;;15.00;99.90;;;;;;5117996;27;20210;-67
2022/09/12 02:26:21;;;;;;;2.97;2.20;;;15.00;99.90;;;;;;5115686;27;20197;-69
2022/09/12 02:28:48;;;;;;;2.60;2.20;;;14.90;99.90;;;;;;5116181;27;20190;-68
2022/09/12 02:31:22;;;;;;;2.33;2.17;;;14.90;99.90;;;;;;5118363;27;20226;-68
2022/09/12 02:33:57;;;;;;;2.33;2.23;;;14.90;99.90;;;;;;5112039;27;20288;-69
2022/09/12 02:36:33;;;;;;;2.70;2.50;;;14.90;99.90;;;;;;5106503;28;20198;-68
2022/09/12 02:39:00;;;;;;;2.50;2.33;;;14.90;99.90;;;;;;5109810;27;20223;-68
2022/09/12 02:41:28;;;;;;;2.30;2.20;;;14.90;99.90;;;;;;5106746;28;20238;-68
2022/09/12 02:43:56;;;;;;;2.17;1.97;;;14.80;99.90;;;;;;5114259;27;20668;-69
2022/09/12 02:46:27;;;;;;;2.60;2.40;;;14.80;99.90;;;;;;5116142;27;20734;-69
2022/09/12 02:48:55;;;;;;;2.50;2.30;;;14.80;99.90;;;;;;5114288;27;20225;-70
2022/09/12 02:51:22;;;;;;;2.90;2.70;;;14.80;99.90;;;;;;5120948;27;20271;-69
2022/09/12 02:53:49;;;;;;;2.30;2.10;;;14.70;99.90;;;;;;5118951;27;20205;-69
2022/09/12 02:56:21;;;;;;;2.57;2.30;;;14.70;99.90;;;;;;5118168;27;20672;-70
2022/09/12 02:58:49;;;;;;;2.53;2.33;;;14.70;99.90;;;;;;5123738;27;20190;-69
2022/09/12 03:01:29;;;;;;;2.97;2.70;;;14.70;99.90;;;;;;5110243;27;20368;-69
2022/09/12 03:04:19;;;;;;;2.63;2.40;;;14.60;99.90;;;;;;5105684;28;20190;-67
2022/09/12 03:06:52;;;;;;;2.20;2.00;;;14.60;99.90;;;;;;5123852;27;20284;-68
2022/09/12 03:09:27;;;;;;;2.40;2.30;;;14.60;99.90;;;;;;5111395;27;20202;-68
2022/09/12 03:12:11;;;;;;;2.63;2.50;;;14.60;99.90;;;;;;5106560;28;20387;-68
2022/09/12 03:15:00;;;;;;;2.40;2.30;;;14.60;99.90;;;;;;5106685;28;20194;-68
2022/09/12 03:17:35;;;;;;;2.90;2.80;;;14.60;99.90;;;;;;5106514;28;20191;-68
2022/09/12 03:20:08;;;;;;;2.93;2.57;;;14.50;99.90;;;;;;5106245;28;20198;-68
2022/09/12 03:22:42;;;;;;;2.60;2.50;;;14.60;99.90;;;;;;5125430;28;20259;-67
2022/09/12 03:25:18;;;;;;;2.60;2.50;;;14.60;99.90;;;;;;5142855;27;20199;-68
2022/09/12 03:27:52;;;;;;;2.63;2.53;;;14.50;99.90;;;;;;5133279;27;20193;-68
2022/09/12 03:30:20;;;;;;;3.17;2.57;;;14.60;99.90;;;;;;5127899;27;20228;-68
2022/09/12 03:32:48;;;;;;;2.60;2.40;;;14.50;99.90;;;;;;5128167;27;20220;-68
2022/09/12 03:35:17;;;;;;;2.57;2.47;;;14.50;99.90;;;;;;5127767;27;20205;-68
2022/09/12 03:37:43;;;;;;;2.43;2.33;;;14.50;99.90;;;;;;5120343;27;20232;-68
2022/09/12 03:40:11;;;;;;;2.50;2.30;;;14.50;99.90;;;;;;5106938;28;20701;-68
2022/09/12 03:42:38;;;;;;;2.33;2.23;;;14.40;99.90;;;;;;5107363;28;20202;-68
2022/09/12 03:45:05;;;;;;;2.60;2.50;;;14.40;99.90;;;;;;5106937;28;20237;-68
2022/09/12 03:47:34;;;;;;;2.40;2.30;;;14.40;99.90;;;;;;5107412;28;20213;-68
2022/09/12 03:50:01;;;;;;;2.47;2.37;;;14.50;99.90;;;;;;5120070;28;20198;-68
2022/09/12 03:52:28;;;;;;;3.33;2.30;;;14.40;99.90;;;;;;5127871;27;20193;-68
2022/09/12 03:54:54;;;;;;;2.60;2.50;;;14.40;99.90;;;;;;5128100;27;20213;-68
2022/09/12 03:57:21;;;;;;;2.30;2.20;;;14.40;99.90;;;;;;5127500;27;20703;-69
2022/09/12 03:59:49;;;;;;;2.73;2.53;;;14.40;99.90;;;;;;5127773;27;20211;-68
2022/09/12 04:02:16;;;;;;;2.50;2.40;;;14.40;99.90;;;;;;5127504;27;20205;-68
2022/09/12 04:04:47;;;;;;;2.47;2.27;;;14.30;99.90;;;;;;5127686;27;20210;-68
2022/09/12 04:07:14;;;;;;;2.50;2.40;;;14.20;99.90;;;;;;5127818;27;20644;-69
2022/09/12 04:09:41;;;;;;;2.40;2.30;;;14.20;99.90;;;;;;5128011;27;20198;-68
2022/09/12 04:12:08;;;;;;;2.37;2.27;;;14.20;99.90;;;;;;5129395;27;20240;-68
2022/09/12 04:14:34;;;;;;;2.67;2.53;;;14.20;99.90;;;;;;5131582;27;20205;-68
2022/09/12 04:17:01;;;;;;;2.63;2.53;;;14.20;99.90;;;;;;5131256;27;20205;-68
2022/09/12 04:19:28;;;;;;;2.57;2.47;;;14.20;99.90;;;;;;5131550;27;20208;-69
2022/09/12 04:21:56;;;;;;;2.50;2.40;;;14.10;99.90;;;;;;5131606;27;20211;-69
2022/09/12 04:24:23;;;;;;;2.93;2.63;;;14.10;99.90;;;;;;5121733;27;20205;-69
2022/09/12 04:26:50;;;;;;;2.43;2.33;;;14.10;99.90;;;;;;5131591;27;20209;-69
2022/09/12 04:29:17;;;;;;;2.60;2.50;;;14.10;99.90;;;;;;5131354;27;20209;-69
2022/09/12 04:31:44;;;;;;;2.40;2.30;;;14.20;99.90;;;;;;5128322;27;20257;-69
2022/09/12 04:34:11;;;;;;;2.90;2.70;;;14.20;99.90;;;;;;5121681;27;20202;-69
2022/09/12 04:36:38;;;;;;;2.97;2.50;;;14.10;99.90;;;;;;5110883;28;20198;-69
2022/09/12 04:39:06;;;;;;;2.67;2.57;;;14.10;99.90;;;;;;5110651;28;20582;-69
2022/09/12 04:41:35;;;;;;;2.73;2.63;;;14.00;99.90;;;;;;5131220;27;20205;-68
2022/09/12 04:44:04;;;;;;;3.20;3.00;;;14.00;99.90;;;;;;5130617;27;20206;-68
2022/09/12 04:46:33;;;;;;;3.20;3.00;;;14.00;99.90;;;;;;5130460;27;20239;-69
2022/09/12 04:49:00;;;;;;;3.00;2.90;;;14.00;99.90;;;;;;5130902;27;20212;-69
2022/09/12 04:51:29;;;;;;;3.07;2.97;;;14.00;99.90;;;;;;5131216;27;20237;-68
2022/09/12 04:53:58;;;;;;;3.47;2.73;;;14.00;99.90;;;;;;5130918;27;20653;-69
2022/09/12 04:56:27;;;;;;;3.13;3.03;;;14.00;99.90;;;;;;5130955;27;20237;-69
2022/09/12 04:58:56;;;;;;;3.33;3.13;;;14.00;99.90;;;;;;5130653;27;20209;-69
2022/09/12 05:01:22;;;;;;;3.20;3.10;;;14.00;99.90;;;;;;5130810;27;20213;-69
2022/09/12 05:03:50;;;;;;;3.13;3.03;;;14.00;99.90;;;;;;5130739;27;20205;-69
2022/09/12 05:06:19;;;;;;;3.70;3.50;;;14.00;99.90;;;;;;5122748;27;20206;-69
2022/09/12 05:08:48;;;;;;;3.50;3.30;;;14.00;99.90;;;;;;5108795;28;20679;-68
2022/09/12 05:11:17;;;;;;;3.40;3.20;;;14.00;99.90;;;;;;5110057;28;20226;-69
2022/09/12 05:13:45;;;;;;;2.97;2.77;;;14.00;99.90;;;;;;5117355;27;20209;-68
2022/09/12 05:16:14;;;;;;;3.10;2.90;;;14.00;99.90;;;;;;5129978;27;20576;-69
2022/09/12 05:18:41;;;;;;;3.20;3.00;;;14.00;99.90;;;;;;5132453;27;20205;-69
2022/09/12 05:21:11;;;;;;;3.40;3.20;;;14.00;99.90;;;;;;5151018;27;20212;-69
2022/09/12 05:23:38;;;;;;;3.70;3.40;;;14.00;99.90;;;;;;5148185;27;20205;-69
2022/09/12 05:26:11;;;;;;;3.43;3.23;;;14.10;99.90;;;;;;5130140;27;20205;-69
2022/09/12 05:28:39;;;;;;;4.03;3.60;;;14.10;99.90;;;;;;5129902;27;20232;-69
2022/09/12 05:31:10;;;;;;;3.90;3.50;;;14.10;99.90;;;;;;5114622;27;20230;-69
2022/09/12 05:33:39;;;;;;;3.73;3.43;;;14.20;99.90;;;;;;5109802;28;20194;-69
2022/09/12 05:36:08;;;;;;;3.77;3.57;;;14.20;99.90;;;;;;5109566;28;20206;-69
2022/09/12 05:38:35;;;;;;;3.47;3.27;;;14.20;99.90;;;;;;5109797;28;20202;-68
2022/09/12 05:41:11;;;;;;;3.67;3.47;;;14.20;99.90;;;;;;5125453;27;20233;-68
2022/09/12 05:43:40;;;;;;;4.43;3.77;;;14.20;99.90;;;;;;5109365;28;20761;-68
2022/09/12 05:46:10;;;;;;;3.73;3.53;;;14.20;99.90;;;;;;5108795;28;20234;-68
2022/09/12 05:48:38;;;;;;;3.70;3.40;;;14.20;99.90;;;;;;5109298;28;20205;-68
2022/09/12 05:51:09;;;;;;;3.60;3.30;;;14.30;99.90;;;;;;5109397;28;20230;-68
2022/09/12 05:53:38;;;;;;;3.57;3.37;;;14.30;99.90;;;;;;5111435;27;20217;-68
2022/09/12 05:56:09;;;;;;;4.03;3.73;;;14.30;99.90;;;;;;5121591;27;20217;-68
2022/09/12 05:58:39;;;;;;;4.17;3.87;;;14.30;99.90;;;;;;5109146;28;20215;-68
2022/09/12 06:01:10;;;;;;;4.23;3.47;;;14.30;99.90;;;;;;5108543;28;20229;-68
2022/09/12 06:03:40;;;;;;;4.17;3.97;;;14.30;99.90;;;;;;5109047;28;20190;-68
2022/09/12 06:06:07;;;;;;;4.07;3.87;;;14.30;99.90;;;;;;5108962;28;20214;-68
2022/09/12 06:08:35;;;;;;;4.23;4.03;;;14.30;99.90;;;;;;5108710;28;20202;-68
2022/09/12 06:11:05;;;;;;;4.70;4.30;;;14.30;99.90;;;;;;5124572;27;20202;-68
2022/09/12 06:13:32;;;;;;;5.20;4.80;;;14.30;99.90;;;;;;5129208;27;20202;-68
2022/09/12 06:16:09;;;;;;;4.77;4.47;;;14.30;99.90;;;;;;5128697;27;20232;-68
2022/09/12 06:18:38;;;;;;;4.67;4.37;;;14.30;99.90;;;;;;5129091;27;20197;-68
2022/09/12 06:21:06;;;;;;;4.73;4.37;;;14.20;99.90;;;;;;5129001;27;20201;-68
2022/09/12 06:23:33;;;;;;;4.90;4.60;;;14.20;99.90;;;;;;5128905;27;20209;-68
2022/09/12 06:26:01;;;;;;;6.00;5.60;;;14.20;99.90;;;;;;5128523;27;20217;-68
2022/09/12 06:28:28;;;;;;;5.13;4.80;;;14.30;99.90;;;;;;5128550;27;20674;-68
2022/09/12 06:31:04;;;;;;;5.50;5.10;;;14.30;99.90;;;;;;5128260;27;20206;-68
2022/09/12 06:33:34;;;;;;;5.73;5.17;;;14.30;99.90;;;;;;5128871;27;20561;-68
2022/09/12 06:36:10;;;;;;;5.43;4.97;;;14.30;99.90;;;;;;5133986;27;20204;-68
2022/09/12 06:38:38;;;;;;;6.00;5.60;;;14.40;99.90;;;;;;5133359;27;20206;-68
2022/09/12 06:41:10;;;;;;;5.70;5.40;;;14.40;99.90;;;;;;5112780;27;20240;-68
2022/09/12 06:43:37;;;;;;;6.33;5.90;;;14.50;99.90;;;;;;5128538;27;20197;-68
2022/09/12 06:46:06;;;;;;;6.70;6.17;;;14.60;99.90;;;;;;5128093;27;20252;-68
2022/09/12 06:48:34;;;;;;;6.50;6.10;;;14.60;99.90;;;;;;5128824;27;20603;-69
2022/09/12 06:51:06;;;;;;;5.97;5.47;;;14.60;99.90;;;;;;5128574;27;20205;-67
2022/09/12 06:53:35;;;;;;;6.03;5.63;;;14.70;99.90;;;;;;5111616;27;20298;-67
2022/09/12 06:56:05;;;;;;;6.23;5.60;;;14.80;99.90;;;;;;5128146;27;20213;-67
2022/09/12 06:58:33;;;;;;;6.00;5.50;;;14.80;99.90;;;;;;5128337;27;20250;-67
2022/09/12 07:01:05;;;;;;;5.57;5.17;;;14.90;99.90;;;;;;5128169;27;20621;-68
2022/09/12 07:03:34;;;;;;;5.63;5.23;;;15.00;99.90;;;;;;5128467;27;20209;-68
2022/09/12 07:06:05;;;;;;;5.80;5.30;;;15.00;99.90;;;;;;5128290;27;20212;-68
2022/09/12 07:08:32;;;;;;;5.80;5.40;;;15.10;99.90;;;;;;5128574;27;20278;-68
2022/09/12 07:11:01;;;;;;;6.00;5.50;;;15.10;99.90;;;;;;5128267;27;20205;-68
2022/09/12 07:13:28;;;;;;;5.60;5.20;;;15.20;99.90;;;;;;5128051;27;20286;-68
2022/09/12 07:15:55;;;;;;;6.20;5.70;;;15.30;99.90;;;;;;5128171;27;20273;-68
2022/09/12 07:18:22;;;;;;;5.40;5.10;;;15.40;99.90;;;;;;5128082;27;20205;-68
2022/09/12 07:20:50;;;;;;;5.83;5.33;;;15.40;99.90;;;;;;5128380;27;20285;-68
2022/09/12 07:23:17;;;;;;;6.10;5.13;;;15.50;99.90;;;;;;5127678;27;20224;-68
2022/09/12 07:25:44;;;;;;;4.67;4.37;;;15.50;99.90;;;;;;5128120;27;20209;-68
2022/09/12 07:28:10;;;;;;;4.63;4.30;;;15.60;99.90;;;;;;5128442;27;20208;-67
2022/09/12 07:30:38;;;;;;;4.80;4.20;;;15.70;99.90;;;;;;5127983;27;20212;-68
2022/09/12 07:33:05;;;;;;;5.23;4.73;;;15.70;99.90;;;;;;5128180;27;20239;-68
2022/09/12 07:35:33;;;;;;;5.50;5.20;;;15.80;99.90;;;;;;5128542;27;20296;-68
2022/09/12 07:38:02;;;;;;;5.10;4.60;;;15.80;99.90;;;;;;5128001;27;20197;-68
2022/09/12 07:40:29;;;;;;;3.70;3.50;;;15.90;99.90;;;;;;5107686;27;20218;-68
2022/09/12 07:42:55;;;;;;;3.77;3.37;;;16.00;99.90;;;;;;5107974;28;20294;-68
2022/09/12 07:45:22;;;;;;;4.23;3.47;;;16.10;99.90;;;;;;5106950;28;20245;-68
2022/09/12 07:47:52;;;;;;;2.90;2.70;;;16.20;99.90;;;;;;5112107;27;20703;-68
2022/09/12 07:50:19;;;;;;;3.10;2.90;;;16.30;99.90;;;;;;5132250;27;20197;-68
2022/09/12 07:52:46;;;;;;;3.87;3.10;;;16.30;99.90;;;;;;5132086;27;20237;-67
2022/09/12 07:55:14;;;;;;;6.07;3.97;;;16.30;99.90;;;;;;5132125;27;20205;-68
2022/09/12 07:57:41;;;;;;;3.70;3.40;;;16.40;99.90;;;;;;5132186;27;20197;-68
2022/09/12 08:00:09;;;;;;;3.10;2.90;;;16.50;99.90;;;;;;5131794;27;20201;-68
2022/09/12 08:02:36;;;;;;;3.07;2.93;;;16.50;99.90;;;;;;5132004;27;20296;-67
2022/09/12 08:05:03;;;;;;;2.60;2.40;;;16.60;99.90;;;;;;5131319;27;20762;-68
2022/09/12 08:07:30;;;;;;;2.83;2.20;;;16.60;99.90;;;;;;5131578;27;20213;-68
2022/09/12 08:09:57;;;;;;;2.23;2.13;;;16.70;99.90;;;;;;5131495;27;20209;-69
2022/09/12 08:12:25;;;;;;;2.47;2.20;;;16.80;99.90;;;;;;5131666;27;20236;-69
2022/09/12 08:14:52;;;;;;;3.20;2.33;;;16.80;99.90;;;;;;5131780;27;20212;-69
2022/09/12 08:17:19;;;;;;;2.43;2.23;;;16.90;99.90;;;;;;5123701;27;20198;-69
2022/09/12 08:19:46;;;;;;;2.20;2.03;;;17.00;99.90;;;;;;5125256;27;20201;-69
2022/09/12 08:22:13;;;;;;;2.00;1.90;;;17.10;99.90;;;;;;5131536;27;20216;-69
2022/09/12 08:24:40;;;;;;;3.97;2.40;;;17.20;99.90;;;;;;5142170;27;20239;-69
2022/09/12 08:27:07;;;;;;;2.90;2.40;;;17.20;99.90;;;;;;5152072;27;20201;-69
2022/09/12 08:29:35;;;;;;;2.40;2.20;;;17.20;99.90;;;;;;5152035;27;20386;-69
2022/09/12 08:32:03;;;;;;;3.60;2.00;;;17.30;99.90;;;;;;5132135;27;20664;-69
2022/09/12 08:34:30;;;;;;;2.10;2.00;;;17.30;99.90;;;;;;5131170;27;20655;-69
2022/09/12 08:36:56;;;;;;;1.73;1.63;;;17.40;99.90;;;;;;5131357;27;20199;-69
2022/09/12 08:39:23;;;;;;;2.90;2.20;;;17.40;99.90;;;;;;5131083;27;20221;-69
2022/09/12 08:41:58;;;;;;;2.00;1.67;;;17.50;99.90;;;;;;5131144;27;20205;-69
2022/09/12 08:44:48;;;;;;;1.83;1.73;;;17.60;99.90;;;;;;5130924;27;20208;-69
2022/09/12 08:47:22;;;;;;;1.70;1.60;;;17.70;99.90;;;;;;5130642;27;20518;-69
2022/09/12 08:49:57;;;;;;;3.30;1.80;;;17.70;99.90;;;;;;5130847;27;20731;-69
2022/09/12 08:52:29;;;;;;;3.53;1.90;;;17.80;99.90;;;;;;5130913;27;20577;-69
2022/09/12 08:54:56;;;;;;;1.50;1.40;;;17.90;99.90;;;;;;5130766;27;20201;-69
2022/09/12 08:57:24;;;;;;;1.87;1.77;;;17.90;99.90;;;;;;5130115;27;20696;-69
2022/09/12 08:59:52;;;;;;;1.40;1.30;;;18.00;99.90;;;;;;5129760;27;20212;-69
2022/09/12 09:02:41;;;;;;;1.40;1.30;;;18.10;99.90;;;;;;5130608;27;20212;-69
2022/09/12 09:05:19;;;;;;;1.60;1.20;;;18.10;99.90;;;;;;5130629;27;20593;-69
2022/09/12 09:08:21;;;;;;;1.60;1.50;;;18.10;99.90;;;;;;5130711;27;20552;-69
2022/09/12 09:10:51;;;;;;;1.60;1.30;;;18.00;99.90;;;;;;5130421;27;20196;-69
2022/09/12 09:16:29;;;;;;;1.03;1.00;;;18.10;99.90;;;;;;5109285;27;20216;-69
2022/09/12 09:19:01;;;;;;;1.07;1.00;;;18.20;99.90;;;;;;5110231;28;20293;-69
2022/09/12 09:21:33;;;;;;;1.23;1.23;;;18.30;99.90;;;;;;5110183;28;20190;-69
2022/09/12 09:24:04;;;;;;;1.10;1.00;;;18.40;99.90;;;;;;5115368;27;20206;-69
2022/09/12 09:26:41;;;;;;;1.17;1.03;;;18.50;99.90;;;;;;5126897;27;20201;-69
2022/09/12 09:29:16;;;;;;;0.87;0.87;;;18.70;99.90;;;;;;5109988;28;20200;-69
2022/09/12 09:31:47;;;;;;;1.30;1.20;;;18.70;99.90;;;;;;5129900;27;20719;-69
2022/09/12 09:34:19;;;;;;;0.90;0.90;;;18.80;99.90;;;;;;5130404;27;20194;-69
2022/09/12 09:36:51;;;;;;;1.23;1.13;;;18.90;99.90;;;;;;5130450;27;20201;-69
2022/09/12 09:39:34;;;;;;;1.03;0.93;;;19.00;99.90;;;;;;5130120;27;20637;-69
2022/09/12 09:42:12;;;;;;;1.20;1.10;;;19.00;99.90;;;;;;5130145;27;20213;-69
2022/09/12 09:44:40;;;;;;;2.23;1.07;;;19.10;99.90;;;;;;5129804;27;20244;-69
2022/09/12 09:47:10;;;;;;;1.00;1.00;;;19.20;99.90;;;;;;5129933;27;20221;-69
2022/09/12 09:49:39;;;;;;;1.23;1.07;;;19.30;99.90;;;;;;5130009;27;20193;-69
2022/09/12 09:52:08;;;;;;;0.80;0.80;;;19.30;99.90;;;;;;5129922;27;20295;-68
2022/09/12 09:54:39;;;;;;;1.63;0.90;;;19.40;99.90;;;;;;5126564;27;20210;-68
2022/09/12 09:57:38;;;;;;;1.00;1.00;;;19.50;99.90;;;;;;5109177;28;20198;-68
2022/09/12 10:00:21;;;;;;;1.33;0.70;;;19.50;99.90;;;;;;5111919;27;20202;-68
2022/09/12 10:03:00;;;;;;;0.97;0.97;;;19.60;99.90;;;;;;5129544;27;20250;-68
2022/09/12 10:05:30;;;;;;;3.37;1.13;;;19.80;99.90;;;;;;5129416;27;20282;-68
2022/09/12 10:07:57;;;;;;;0.90;0.90;;;19.90;99.90;;;;;;5129242;27;20673;-68
2022/09/12 10:10:24;;;;;;;0.90;0.90;;;20.00;99.90;;;;;;5128172;27;20205;-68
2022/09/12 10:13:05;;;;;;;2.80;1.40;;;20.00;99.90;;;;;;5109710;27;20812;-69
2022/09/12 10:15:33;;;;;;;1.03;0.90;;;20.10;99.90;;;;;;5108754;28;20201;-68
2022/09/12 10:18:01;;;;;;;1.40;0.90;;;20.20;99.90;;;;;;5108678;28;20210;-68
2022/09/12 10:20:35;;;;;;;1.10;1.00;;;20.20;99.90;;;;;;5108937;27;20288;-68
2022/09/12 10:23:08;;;;;;;1.20;1.20;;;20.30;99.90;;;;;;5128947;27;20205;-68
2022/09/12 10:25:35;;;;;;;1.00;1.00;;;20.30;99.90;;;;;;5129229;27;20225;-68
2022/09/12 10:28:02;;;;;;;1.07;0.83;;;20.30;99.90;;;;;;5128903;27;20209;-68
2022/09/12 10:30:29;;;;;;;0.90;0.90;;;20.20;99.90;;;;;;5128403;27;20205;-67
2022/09/12 10:33:05;;;;;;;0.83;0.83;;;20.10;99.90;;;;;;5129067;27;20229;-69
2022/09/12 10:35:45;;;;;;;0.77;0.77;;;20.20;99.90;;;;;;5128781;27;20185;-68
2022/09/12 10:38:16;;;;;;;0.83;0.83;;;20.30;99.90;;;;;;5127665;27;20197;-68
2022/09/12 10:40:44;;;;;;;2.03;0.93;;;20.30;99.90;;;;;;5108417;28;20297;-69
2022/09/12 10:43:17;;;;;;;0.80;0.80;;;20.30;99.90;;;;;;5108220;28;20206;-69
2022/09/12 10:45:44;;;;;;;1.20;1.00;;;20.30;99.90;;;;;;5107693;28;20249;-69
2022/09/12 10:48:27;;;;;;;1.13;1.03;;;20.40;99.90;;;;;;5108066;28;20202;-68
2022/09/12 10:50:57;;;;;;;1.10;0.80;;;20.60;99.90;;;;;;5112094;27;20642;-69
2022/09/12 10:53:25;;;;;;;1.17;0.90;;;20.80;99.90;;;;;;5128493;27;20232;-69
2022/09/12 10:56:11;;;;;;;2.60;1.30;;;21.00;99.90;;;;;;5128548;27;20217;-69
2022/09/12 10:58:52;;;;;;;1.47;1.37;;;21.20;99.90;;;;;;5108081;28;20190;-69
2022/09/12 11:01:33;;;;;;;0.90;0.90;;;21.20;99.90;;;;;;5107345;28;20661;-69
2022/09/12 11:04:18;;;;;;;0.97;0.80;;;21.30;99.90;;;;;;5107942;28;20189;-69
2022/09/12 11:06:57;;;;;;;1.00;1.00;;;21.40;99.90;;;;;;5126732;27;20197;-69
2022/09/12 11:09:30;;;;;;;0.70;0.70;;;21.40;99.90;;;;;;5128307;27;20280;-69
2022/09/12 11:12:05;;;;;;;1.13;0.77;;;21.40;99.90;;;;;;5128414;27;20695;-69
2022/09/12 11:14:54;;;;;;;0.93;0.83;;;21.50;99.90;;;;;;5128216;27;20677;-69
2022/09/12 11:17:30;;;;;;;0.90;0.90;;;21.50;99.90;;;;;;5127967;27;20202;-69
2022/09/12 11:20:26;;;;;;;1.45;1.20;;;21.60;99.90;;;;;;5128220;27;20208;-68
2022/09/12 11:23:22;;;;;;;1.23;0.80;;;21.60;99.90;;;;;;5127750;27;20201;-68
2022/09/12 11:25:55;;;;;;;0.80;0.80;;;21.50;99.90;;;;;;5107927;28;20198;-68
2022/09/12 11:28:34;;;;;;;0.75;0.75;;;21.30;99.90;;;;;;5107401;28;20194;-68
2022/09/12 11:31:20;;;;;;;1.00;0.95;;;21.10;99.90;;;;;;5107022;28;20198;-68
2022/09/12 11:33:49;;;;;;;1.23;1.08;;;21.10;99.90;;;;;;5117498;28;20228;-68
2022/09/12 11:36:31;;;;;;;0.88;0.88;;;21.20;99.90;;;;;;5128388;27;20209;-68
2022/09/12 11:39:13;;;;;;;0.83;0.83;;;21.30;99.90;;;;;;5128324;27;20248;-68
2022/09/12 11:41:42;;;;;;;1.02;0.88;;;21.40;99.90;;;;;;5128219;27;20272;-68
2022/09/12 11:44:16;;;;;;;3.30;0.88;;;21.60;99.90;;;;;;5128150;27;20224;-68
2022/09/12 11:46:44;;;;;;;0.85;0.85;;;21.70;99.90;;;;;;5127476;27;20197;-68
2022/09/12 11:49:28;;;;;;;0.88;0.88;;;21.90;99.90;;;;;;5127994;27;20368;-68
2022/09/12 11:52:01;;;;;;;1.25;1.00;;;22.10;99.90;;;;;;5128175;27;20197;-68
2022/09/12 11:54:35;;;;;;;1.27;0.90;;;22.40;99.90;;;;;;5127701;27;20235;-68
2022/09/12 11:57:11;;;;;;;0.70;0.70;;;22.30;99.90;;;;;;5127584;27;20262;-68
2022/09/12 11:59:47;;;;;;;0.90;0.90;;;22.30;99.90;;;;;;5127720;27;20648;-68
2022/09/12 12:02:21;;;;;;;1.40;0.82;;;22.40;99.90;;;;;;5127326;27;20197;-68
2022/09/12 12:05:01;;;;;;;0.75;0.75;;;22.50;99.90;;;;;;5113429;27;20216;-68
2022/09/12 12:07:34;;;;;;;2.78;1.00;;;22.60;99.90;;;;;;5107638;28;20198;-68
2022/09/12 12:10:02;;;;;;;1.27;1.02;;;22.60;99.90;;;;;;5107549;28;20225;-68
2022/09/12 12:12:29;;;;;;;1.30;1.30;;;22.80;99.90;;;;;;5107423;28;20203;-68
2022/09/12 12:14:57;;;;;;;0.80;0.80;;;22.80;99.90;;;;;;5107819;28;20259;-68
2022/09/12 12:17:25;;;;;;;0.80;0.80;;;22.80;99.90;;;;;;5127367;27;20290;-68
2022/09/12 12:19:59;;;;;;;1.40;0.90;;;22.70;99.90;;;;;;5127700;27;20197;-68
2022/09/12 12:22:26;;;;;;;1.30;0.80;;;22.60;99.90;;;;;;5128028;27;20190;-68
2022/09/12 12:25:01;;;;;;;0.95;0.93;;;22.60;99.90;;;;;;5140490;27;20709;-68
2022/09/12 12:27:48;;;;;;;0.90;0.90;;;22.50;99.90;;;;;;5148433;27;20196;-68
2022/09/12 12:30:51;;;;;;;0.82;0.82;;;22.60;99.90;;;;;;5136069;27;20202;-68
2022/09/12 12:33:57;;;;;;;2.83;0.93;;;22.70;99.90;;;;;;5128984;27;20255;-68
2022/09/12 12:36:34;;;;;;;0.88;0.88;;;22.80;99.90;;;;;;5103101;27;20201;-68
2022/09/12 12:39:54;;;;;;;1.15;1.00;;;22.60;99.90;;;;;;5122742;27;20716;-68
2022/09/12 12:43:01;;;;;;;2.10;0.85;;;22.60;99.90;;;;;;5110874;28;20644;-68
2022/09/12 12:46:11;;;;;;;0.90;0.90;;;22.50;99.90;;;;;;5109996;28;20261;-68
2022/09/12 12:48:57;;;;;;;3.13;1.27;;;22.30;99.90;;;;;;5112017;27;20194;-68
2022/09/12 12:51:31;;;;;;;1.45;0.90;;;22.20;99.90;;;;;;5124499;27;20272;-68
2022/09/12 12:53:59;;;;;;;1.30;1.05;;;22.00;99.90;;;;;;5124960;27;20219;-70
2022/09/12 12:56:34;;;;;;;0.98;0.90;;;22.00;99.90;;;;;;5120445;27;20656;-70
2022/09/12 12:59:04;;;;;;;0.90;0.75;;;21.90;99.90;;;;;;5120928;27;20672;-69
2022/09/12 13:01:38;;;;;;;1.90;1.02;;;22.00;99.90;;;;;;5118233;27;20201;-70
2022/09/12 13:04:16;;;;;;;1.75;0.75;;;22.00;99.90;;;;;;5120026;27;20196;-70
2022/09/12 13:06:45;;;;;;;0.63;0.63;;;22.10;99.90;;;;;;5121967;27;20186;-69
2022/09/12 13:09:21;;;;;;;0.95;0.93;;;22.30;99.90;;;;;;5119847;27;20652;-69
2022/09/12 13:11:58;;;;;;;1.00;1.00;;;22.40;99.90;;;;;;5117816;27;20293;-70
2022/09/12 13:14:51;;;;;;;1.70;1.00;;;22.40;99.90;;;;;;5123903;27;20213;-70
2022/09/12 13:17:29;;;;;;;1.67;0.88;;;22.60;99.90;;;;;;5109844;28;20194;-70
2022/09/12 13:20:07;;;;;;;11.10;1.85;;;22.60;99.90;;;;;;5130906;27;20196;-71
2022/09/12 13:22:40;;;;;;;1.33;1.10;;;22.60;99.90;;;;;;5109999;28;20193;-70
2022/09/12 13:25:29;;;;;;;1.60;1.02;;;22.70;99.90;;;;;;5109854;28;20262;-70
2022/09/12 13:28:17;;;;;;;1.75;1.33;;;22.70;99.90;;;;;;5107235;27;20229;-70
2022/09/12 13:30:47;;;;;;;0.77;0.77;;;22.80;99.90;;;;;;5129406;27;20236;-71
2022/09/12 13:33:21;;;;;;;0.95;0.90;;;22.80;99.90;;;;;;5109928;28;20190;-70
2022/09/12 13:36:10;;;;;;;1.05;1.05;;;22.70;99.90;;;;;;5124411;27;20205;-71
2022/09/12 13:38:46;;;;;;;1.45;1.05;;;22.70;99.90;;;;;;5111192;27;20222;-70
2022/09/12 13:41:32;;;;;;;1.10;1.00;;;22.70;99.90;;;;;;5119491;27;20198;-70
2022/09/12 13:44:00;;;;;;;2.67;0.90;;;22.70;99.90;;;;;;5117553;27;20205;-68
2022/09/12 13:46:31;;;;;;;1.00;1.00;;;22.70;99.90;;;;;;5125653;27;20241;-69
2022/09/12 13:48:59;;;;;;;0.70;0.70;;;22.80;99.90;;;;;;5110313;27;20195;-68
2022/09/12 13:51:31;;;;;;;0.95;0.80;;;22.70;99.90;;;;;;5113355;27;20209;-68
2022/09/12 13:54:02;;;;;;;0.93;0.85;;;22.70;99.90;;;;;;5125561;27;20261;-70
2022/09/12 13:56:29;;;;;;;0.70;0.70;;;22.70;99.90;;;;;;5118476;27;20220;-70